Time;durP1;ratioP1;P1;durP2;ratioP2;P2;SDS_P1;SDS_P2;PMS_P1;PMS_P2;Temp;Humidity;BMP_temperature;BMP_pressure;BME280_temperature;BME280_humidity;BME280_pressure;Samples;Min_cycle;Max_cycle;Signal;HPM_P1;HPM_P2
2023/07/07 00:00:36;;;;;;;;;;;;;;;;;;5042140;28;5059;-53
2023/07/07 00:03:01;;;;;;;;;;;;;;;;;;5047509;28;4597;-52
2023/07/07 00:05:26;;;;;;;;;;;;;;;;;;5042726;28;5005;-54
2023/07/07 00:07:51;;;;;;;;;;;;;;;;;;5047547;28;1389;-55
2023/07/07 00:10:17;;;;;;;;;;;;;;;;;;5050735;28;5113;-54
2023/07/07 00:12:42;;;;;;;;;;;;;;;;;;5051200;28;4618;-56
2023/07/07 00:15:07;;;;;;;;;;;;;;;;;;5051521;28;4870;-55
2023/07/07 00:17:33;;;;;;;;;;;;;;;;;;5051148;28;4561;-59
2023/07/07 00:20:03;;;;;;;;;;;;;;;;;;5050530;28;1914;-56
2023/07/07 00:22:31;;;;;;;;;;;;;;;;;;5028939;28;4958;-58
2023/07/07 00:24:56;;;;;;;;;;;;;;;;;;5028303;28;5014;-55
2023/07/07 00:27:21;;;;;;;;;;;;;;;;;;5025866;28;4956;-53
2023/07/07 00:29:47;;;;;;;;;;;;;;;;;;5028996;28;4868;-58
2023/07/07 00:32:12;;;;;;;;;;;;;;;;;;5027730;28;4660;-57
2023/07/07 00:34:37;;;;;;;;;;;;;;;;;;5028990;28;4816;-55
2023/07/07 00:37:03;;;;;;;;;;;;;;;;;;5031074;28;5170;-54
2023/07/07 00:39:28;;;;;;;;;;;;;;;;;;5042221;28;5042;-55
2023/07/07 00:41:53;;;;;;;;;;;;;;;;;;5066425;28;4465;-58
2023/07/07 00:44:18;;;;;;;;;;;;;;;;;;5049924;28;4500;-56
2023/07/07 00:46:44;;;;;;;;;;;;;;;;;;5046394;28;1046;-57
2023/07/07 00:49:13;;;;;;;;;;;;;;;;;;5049297;28;4687;-56
2023/07/07 00:51:59;;;;;;;;;;;;;;;;;;5056530;28;4925;-60
2023/07/07 00:54:24;;;;;;;;;;;;;;;;;;5048577;28;4555;-57
2023/07/07 00:56:50;;;;;;;;;;;;;;;;;;5048418;28;4614;-55
2023/07/07 00:59:17;;;;;;;;;;;;;;;;;;5049414;28;5107;-54
2023/07/07 01:01:42;;;;;;;;;;;;;;;;;;5036685;28;1176;-56
2023/07/07 01:04:09;;;;;;;;;;;;;;;;;;5030290;28;4639;-55
2023/07/07 01:06:36;;;;;;;;;;;;;;;;;;5029588;28;5067;-58
2023/07/07 01:09:08;;;;;;;;;;;;;;;;;;5045199;28;5208;-54
2023/07/07 01:11:34;;;;;;;;;;;;;;;;;;5023237;28;5059;-55
2023/07/07 01:13:59;;;;;;;;;;;;;;;;;;5029894;28;1196;-59
2023/07/07 01:16:24;;;;;;;;;;;;;;;;;;5029581;28;4983;-54
2023/07/07 01:18:55;;;;;;;;;;;;;;;;;;5029891;28;4474;-58
2023/07/07 01:21:29;;;;;;;;;;;;;;;;;;5011471;28;4662;-55
2023/07/07 01:24:18;;;;;;;;;;;;;;;;;;5045160;28;4922;-55
2023/07/07 01:26:43;;;;;;;;;;;;;;;;;;5022120;28;4999;-55
2023/07/07 01:29:27;;;;;;;;;;;;;;;;;;5028323;28;5023;-53
2023/07/07 01:31:57;;;;;;;;;;;;;;;;;;5026985;28;1277;-52
2023/07/07 01:34:22;;;;;;;;;;;;;;;;;;5011782;28;4873;-52
2023/07/07 01:36:48;;;;;;;;;;;;;;;;;;5029554;28;4885;-52
2023/07/07 01:39:13;;;;;;;;;;;;;;;;;;5029377;28;4597;-53
2023/07/07 01:41:38;;;;;;;;;;;;;;;;;;5029351;28;5041;-53
2023/07/07 01:44:22;;;;;;;;;;;;;;;;;;5029092;28;1090;-53
2023/07/07 01:47:06;;;;;;;;;;;;;;;;;;5028602;28;4358;-57
2023/07/07 01:49:31;;;;;;;;;;;;;;;;;;5029505;28;4981;-56
2023/07/07 01:52:01;;;;;;;;;;;;;;;;;;5029041;28;4997;-54
2023/07/07 01:54:27;;;;;;;;;;;;;;;;;;5029275;28;5054;-54
2023/07/07 01:56:52;;;;;;;;;;;;;;;;;;5042712;28;4677;-52
2023/07/07 01:59:17;;;;;;;;;;;;;;;;;;5029520;28;5188;-53
2023/07/07 02:01:43;;;;;;;;;;;;;;;;;;5044845;28;1288;-53
2023/07/07 02:04:08;;;;;;;;;;;;;;;;;;5044342;28;4974;-54
2023/07/07 02:06:33;;;;;;;;;;;;;;;;;;5028366;28;5055;-58
2023/07/07 02:08:59;;;;;;;;;;;;;;;;;;5028813;28;4967;-59
2023/07/07 02:11:24;;;;;;;;;;;;;;;;;;5023889;28;4504;-52
2023/07/07 02:13:49;;;;;;;;;;;;;;;;;;5036030;28;1247;-62
2023/07/07 02:16:15;;;;;;;;;;;;;;;;;;5029115;28;4825;-52
2023/07/07 02:18:41;;;;;;;;;;;;;;;;;;5028658;28;4577;-52
2023/07/07 02:21:06;;;;;;;;;;;;;;;;;;5028993;28;5095;-58
2023/07/07 02:23:32;;;;;;;;;;;;;;;;;;5028869;28;5234;-60
2023/07/07 02:25:57;;;;;;;;;;;;;;;;;;5029555;28;1253;-54
2023/07/07 02:28:23;;;;;;;;;;;;;;;;;;5025322;28;5013;-52
2023/07/07 02:30:48;;;;;;;;;;;;;;;;;;5028866;28;5055;-56
2023/07/07 02:33:15;;;;;;;;;;;;;;;;;;5028330;28;4878;-54
2023/07/07 02:35:40;;;;;;;;;;;;;;;;;;5028464;28;4781;-55
2023/07/07 02:38:05;;;;;;;;;;;;;;;;;;5028597;28;5057;-56
2023/07/07 02:40:31;;;;;;;;;;;;;;;;;;5028695;28;1975;-58
2023/07/07 02:42:56;;;;;;;;;;;;;;;;;;5028780;28;4938;-53
2023/07/07 02:45:21;;;;;;;;;;;;;;;;;;5028414;28;5173;-53
2023/07/07 02:47:46;;;;;;;;;;;;;;;;;;5027605;28;5346;-53
2023/07/07 02:50:12;;;;;;;;;;;;;;;;;;5028424;28;5661;-59
2023/07/07 02:52:37;;;;;;;;;;;;;;;;;;5027217;28;1079;-58
2023/07/07 02:55:02;;;;;;;;;;;;;;;;;;5028321;28;5278;-55
2023/07/07 02:57:27;;;;;;;;;;;;;;;;;;5027982;28;4972;-56
2023/07/07 02:59:53;;;;;;;;;;;;;;;;;;5028160;28;5060;-56
2023/07/07 03:02:18;;;;;;;;;;;;;;;;;;5042491;28;4923;-57
2023/07/07 03:04:45;;;;;;;;;;;;;;;;;;5028362;28;1164;-54
2023/07/07 03:07:10;;;;;;;;;;;;;;;;;;5027225;28;5019;-56
2023/07/07 03:09:35;;;;;;;;;;;;;;;;;;5027639;28;4997;-55
2023/07/07 03:12:01;;;;;;;;;;;;;;;;;;5027826;28;4513;-54
2023/07/07 03:14:26;;;;;;;;;;;;;;;;;;5028102;28;4419;-56
2023/07/07 03:16:51;;;;;;;;;;;;;;;;;;5032959;28;1133;-57
2023/07/07 03:19:16;;;;;;;;;;;;;;;;;;5028052;28;4472;-54
2023/07/07 03:21:42;;;;;;;;;;;;;;;;;;5027391;28;6126;-56
2023/07/07 03:24:08;;;;;;;;;;;;;;;;;;5051330;28;5185;-57
2023/07/07 03:26:33;;;;;;;;;;;;;;;;;;5047273;28;5034;-58
2023/07/07 03:28:58;;;;;;;;;;;;;;;;;;5038339;28;1114;-56
2023/07/07 03:31:24;;;;;;;;;;;;;;;;;;5047030;28;4936;-55
2023/07/07 03:33:50;;;;;;;;;;;;;;;;;;5047594;28;5202;-55
2023/07/07 03:36:16;;;;;;;;;;;;;;;;;;5044978;28;5090;-56
2023/07/07 03:38:41;;;;;;;;;;;;;;;;;;5046468;28;5023;-54
2023/07/07 03:41:06;;;;;;;;;;;;;;;;;;5047506;28;5082;-53
2023/07/07 03:43:37;;;;;;;;;;;;;;;;;;5030144;28;2124;-56
2023/07/07 03:46:02;;;;;;;;;;;;;;;;;;5030780;28;5052;-53
2023/07/07 03:48:28;;;;;;;;;;;;;;;;;;5027446;28;5117;-56
2023/07/07 03:50:56;;;;;;;;;;;;;;;;;;5027201;28;5135;-60
2023/07/07 03:53:21;;;;;;;;;;;;;;;;;;5027243;28;4724;-55
2023/07/07 03:55:47;;;;;;;;;;;;;;;;;;5027655;28;1195;-54
2023/07/07 03:58:12;;;;;;;;;;;;;;;;;;5025384;28;5047;-53
2023/07/07 04:00:37;;;;;;;;;;;;;;;;;;5039882;28;4462;-55
2023/07/07 04:03:03;;;;;;;;;;;;;;;;;;5043319;28;4887;-55
2023/07/07 04:05:28;;;;;;;;;;;;;;;;;;5047174;28;4662;-54
2023/07/07 04:07:53;;;;;;;;;;;;;;;;;;5046757;28;1557;-55
2023/07/07 04:10:18;;;;;;;;;;;;;;;;;;5046765;28;4881;-55
2023/07/07 04:12:44;;;;;;;;;;;;;;;;;;5047009;28;4999;-55
2023/07/07 04:15:09;;;;;;;;;;;;;;;;;;5048187;28;5116;-57
2023/07/07 04:17:35;;;;;;;;;;;;;;;;;;5040365;28;5038;-54
2023/07/07 04:20:02;;;;;;;;;;;;;;;;;;5047571;28;1906;-54
2023/07/07 04:22:27;;;;;;;;;;;;;;;;;;5047101;28;4527;-57
2023/07/07 04:25:11;;;;;;;;;;;;;;;;;;5044335;28;4963;-54
2023/07/07 04:27:36;;;;;;;;;;;;;;;;;;5024958;28;5053;-51
2023/07/07 04:30:03;;;;;;;;;;;;;;;;;;5027280;28;5138;-55
2023/07/07 04:32:28;;;;;;;;;;;;;;;;;;5027023;28;4489;-55
2023/07/07 04:34:53;;;;;;;;;;;;;;;;;;5027465;28;4917;-53
2023/07/07 04:37:20;;;;;;;;;;;;;;;;;;5026974;28;5049;-54
2023/07/07 04:39:45;;;;;;;;;;;;;;;;;;5042523;28;4959;-56
2023/07/07 04:42:10;;;;;;;;;;;;;;;;;;5026787;28;4928;-56
2023/07/07 04:44:35;;;;;;;;;;;;;;;;;;5027340;28;4929;-55
2023/07/07 04:47:01;;;;;;;;;;;;;;;;;;5027985;28;1620;-56
2023/07/07 04:49:26;;;;;;;;;;;;;;;;;;5026960;28;4826;-54
2023/07/07 04:51:51;;;;;;;;;;;;;;;;;;5026472;28;5138;-51
2023/07/07 04:54:16;;;;;;;;;;;;;;;;;;5023451;28;4979;-53
2023/07/07 04:56:44;;;;;;;;;;;;;;;;;;5030537;28;4999;-57
2023/07/07 04:59:09;;;;;;;;;;;;;;;;;;5030222;28;4548;-52
2023/07/07 05:01:34;;;;;;;;;;;;;;;;;;5021118;28;1484;-54
2023/07/07 05:04:01;;;;;;;;;;;;;;;;;;5045293;28;5081;-55
2023/07/07 05:06:27;;;;;;;;;;;;;;;;;;5030225;28;4670;-58
2023/07/07 05:08:52;;;;;;;;;;;;;;;;;;5050540;28;4623;-52
2023/07/07 05:11:18;;;;;;;;;;;;;;;;;;5033167;28;4447;-55
2023/07/07 05:13:46;;;;;;;;;;;;;;;;;;5030279;28;1253;-55
2023/07/07 05:16:12;;;;;;;;;;;;;;;;;;5030020;28;4833;-56
2023/07/07 05:18:37;;;;;;;;;;;;;;;;;;5042987;28;4674;-53
2023/07/07 05:21:03;;;;;;;;;;;;;;;;;;5050019;28;4767;-55
2023/07/07 05:23:28;;;;;;;;;;;;;;;;;;5049580;28;5015;-55
2023/07/07 05:25:54;;;;;;;;;;;;;;;;;;5050545;28;1098;-60
2023/07/07 05:28:19;;;;;;;;;;;;;;;;;;5046766;28;4991;-53
2023/07/07 05:30:44;;;;;;;;;;;;;;;;;;5052424;28;4518;-57
2023/07/07 05:33:10;;;;;;;;;;;;;;;;;;5045965;28;4569;-56
2023/07/07 05:35:35;;;;;;;;;;;;;;;;;;5041280;28;5169;-56
2023/07/07 05:38:00;;;;;;;;;;;;;;;;;;5050156;28;1382;-51
2023/07/07 05:40:26;;;;;;;;;;;;;;;;;;5049362;28;4446;-55
2023/07/07 05:42:51;;;;;;;;;;;;;;;;;;5045374;28;5072;-63
2023/07/07 05:45:16;;;;;;;;;;;;;;;;;;5047284;28;4554;-63
2023/07/07 05:47:42;;;;;;;;;;;;;;;;;;5044907;28;5195;-63
2023/07/07 05:50:07;;;;;;;;;;;;;;;;;;5048042;28;4564;-62
2023/07/07 05:52:32;;;;;;;;;;;;;;;;;;5073279;28;1294;-64
2023/07/07 05:54:58;;;;;;;;;;;;;;;;;;5049416;28;5804;-63
2023/07/07 05:57:23;;;;;;;;;;;;;;;;;;5047517;28;4850;-63
2023/07/07 05:59:48;;;;;;;;;;;;;;;;;;5048949;28;5027;-64
2023/07/07 06:02:13;;;;;;;;;;;;;;;;;;5048077;28;5094;-63
2023/07/07 06:04:39;;;;;;;;;;;;;;;;;;5045401;28;1829;-62
2023/07/07 06:07:04;;;;;;;;;;;;;;;;;;5047035;28;4443;-62
2023/07/07 06:09:29;;;;;;;;;;;;;;;;;;5048488;28;5916;-64
2023/07/07 06:11:55;;;;;;;;;;;;;;;;;;5048757;28;5080;-64
2023/07/07 06:14:20;;;;;;;;;;;;;;;;;;5048656;28;5129;-64
2023/07/07 06:16:46;;;;;;;;;;;;;;;;;;5049194;28;1077;-63
2023/07/07 06:19:11;;;;;;;;;;;;;;;;;;5041628;28;5013;-64
2023/07/07 06:21:36;;;;;;;;;;;;;;;;;;5048418;28;4463;-64
2023/07/07 06:24:02;;;;;;;;;;;;;;;;;;5048759;28;5054;-64
2023/07/07 06:26:27;;;;;;;;;;;;;;;;;;5048454;28;4682;-63
2023/07/07 06:28:52;;;;;;;;;;;;;;;;;;5045101;28;1351;-65
2023/07/07 06:31:18;;;;;;;;;;;;;;;;;;5048265;28;5022;-63
2023/07/07 06:33:43;;;;;;;;;;;;;;;;;;5036515;28;5201;-63
2023/07/07 06:36:08;;;;;;;;;;;;;;;;;;5035653;28;5079;-63
2023/07/07 06:38:33;;;;;;;;;;;;;;;;;;5042694;28;4586;-63
2023/07/07 06:40:59;;;;;;;;;;;;;;;;;;5048820;28;1918;-63
2023/07/07 06:43:24;;;;;;;;;;;;;;;;;;5048385;28;4894;-63
2023/07/07 06:45:50;;;;;;;;;;;;;;;;;;5048299;28;4621;-64
2023/07/07 06:48:15;;;;;;;;;;;;;;;;;;5063817;28;4991;-63
2023/07/07 06:50:41;;;;;;;;;;;;;;;;;;5048028;28;5064;-63
2023/07/07 06:53:06;;;;;;;;;;;;;;;;;;5048242;28;4933;-64
2023/07/07 06:55:32;;;;;;;;;;;;;;;;;;5048506;28;1189;-63
2023/07/07 06:57:57;;;;;;;;;;;;;;;;;;5047852;28;4427;-63
2023/07/07 07:00:22;;;;;;;;;;;;;;;;;;5032911;28;4486;-64
2023/07/07 07:02:47;;;;;;;;;;;;;;;;;;5030941;28;4512;-64
2023/07/07 07:05:13;;;;;;;;;;;;;;;;;;5044834;28;4892;-65
2023/07/07 07:07:38;;;;;;;;;;;;;;;;;;5045929;28;1345;-64
2023/07/07 07:10:03;;;;;;;;;;;;;;;;;;5046543;28;5027;-63
2023/07/07 07:12:29;;;;;;;;;;;;;;;;;;5033084;28;4671;-64
2023/07/07 07:14:54;;;;;;;;;;;;;;;;;;5033851;28;4446;-63
2023/07/07 07:17:21;;;;;;;;;;;;;;;;;;5043609;28;5000;-60
2023/07/07 07:19:46;;;;;;;;;;;;;;;;;;5025276;28;3162;-63
2023/07/07 07:22:11;;;;;;;;;;;;;;;;;;5044468;28;5196;-63
2023/07/07 07:24:36;;;;;;;;;;;;;;;;;;5046258;28;5164;-63
2023/07/07 07:27:02;;;;;;;;;;;;;;;;;;5037394;28;5086;-63
2023/07/07 07:29:27;;;;;;;;;;;;;;;;;;5030050;28;4695;-63
2023/07/07 07:31:52;;;;;;;;;;;;;;;;;;5047343;28;1152;-63
2023/07/07 07:34:18;;;;;;;;;;;;;;;;;;5046923;28;4959;-63
2023/07/07 07:36:44;;;;;;;;;;;;;;;;;;5046707;28;4426;-63
2023/07/07 07:39:09;;;;;;;;;;;;;;;;;;5046820;28;4993;-63
2023/07/07 07:41:36;;;;;;;;;;;;;;;;;;5041436;28;5136;-63
2023/07/07 07:44:01;;;;;;;;;;;;;;;;;;5027631;28;1683;-64
2023/07/07 07:46:26;;;;;;;;;;;;;;;;;;5027241;28;5319;-63
2023/07/07 07:48:51;;;;;;;;;;;;;;;;;;5030408;28;4455;-63
2023/07/07 07:51:17;;;;;;;;;;;;;;;;;;5033952;28;5079;-62
2023/07/07 07:53:42;;;;;;;;;;;;;;;;;;5028782;28;4970;-64
2023/07/07 07:56:07;;;;;;;;;;;;;;;;;;5023928;28;4720;-63
2023/07/07 07:58:33;;;;;;;;;;;;;;;;;;5031654;28;3190;-64
2023/07/07 08:00:58;;;;;;;;;;;;;;;;;;5042017;28;4979;-63
2023/07/07 08:03:23;;;;;;;;;;;;;;;;;;5032250;28;4637;-63
2023/07/07 08:05:48;;;;;;;;;;;;;;;;;;5024516;28;5059;-64
2023/07/07 08:08:14;;;;;;;;;;;;;;;;;;5027360;28;5114;-65
2023/07/07 08:10:40;;;;;;;;;;;;;;;;;;5031625;28;1599;-65
2023/07/07 08:13:05;;;;;;;;;;;;;;;;;;5047170;28;5004;-67
2023/07/07 08:15:30;;;;;;;;;;;;;;;;;;5046152;28;5058;-66
2023/07/07 08:17:55;;;;;;;;;;;;;;;;;;5035917;28;4978;-66
2023/07/07 08:20:22;;;;;;;;;;;;;;;;;;5027622;28;4643;-66
2023/07/07 08:22:47;;;;;;;;;;;;;;;;;;5048916;28;1370;-64
2023/07/07 08:25:12;;;;;;;;;;;;;;;;;;5045219;28;4570;-65
2023/07/07 08:27:37;;;;;;;;;;;;;;;;;;5023594;28;5266;-64
2023/07/07 08:30:04;;;;;;;;;;;;;;;;;;5046692;28;4529;-65
2023/07/07 08:32:29;;;;;;;;;;;;;;;;;;5044893;28;4532;-65
2023/07/07 08:34:54;;;;;;;;;;;;;;;;;;5050225;28;4942;-64
2023/07/07 08:37:20;;;;;;;;;;;;;;;;;;5049463;28;5001;-67
2023/07/07 08:39:45;;;;;;;;;;;;;;;;;;5050617;28;4915;-64
2023/07/07 08:42:31;;;;;;;;;;;;;;;;;;5049925;28;4456;-65
2023/07/07 08:44:57;;;;;;;;;;;;;;;;;;5039690;28;5004;-65
2023/07/07 08:47:22;;;;;;;;;;;;;;;;;;5032629;28;4971;-65
2023/07/07 08:49:47;;;;;;;;;;;;;;;;;;5049411;28;3142;-65
2023/07/07 08:52:19;;;;;;;;;;;;;;;;;;5032784;28;4549;-68
2023/07/07 08:54:47;;;;;;;;;;;;;;;;;;5057484;28;4963;-69
2023/07/07 08:57:12;;;;;;;;;;;;;;;;;;5017871;28;4482;-66
2023/07/07 08:59:50;;;;;;;;;;;;;;;;;;5041749;28;4506;-65
2023/07/07 09:02:15;;;;;;;;;;;;;;;;;;5033579;28;5008;-61
2023/07/07 09:04:41;;;;;;;;;;;;;;;;;;5026852;28;3225;-61
2023/07/07 09:07:13;;;;;;;;;;;;;;;;;;5027677;28;4826;-60
2023/07/07 09:09:50;;;;;;;;;;;;;;;;;;5041065;28;5967;-61
2023/07/07 09:12:36;;;;;;;;;;;;;;;;;;5026633;28;4619;-61
2023/07/07 09:15:02;;;;;;;;;;;;;;;;;;5040516;28;5163;-62
2023/07/07 09:17:51;;;;;;;;;;;;;;;;;;5029400;28;5022;-63
2023/07/07 09:20:16;;;;;;;;;;;;;;;;;;5030151;28;5313;-64
2023/07/07 09:22:55;;;;;;;;;;;;;;;;;;5028427;28;3249;-60
2023/07/07 09:25:30;;;;;;;;;;;;;;;;;;5024174;28;4477;-66
2023/07/07 09:28:00;;;;;;;;;;;;;;;;;;5041261;28;4454;-61
2023/07/07 09:30:29;;;;;;;;;;;;;;;;;;5051162;28;4743;-62
2023/07/07 09:32:54;;;;;;;;;;;;;;;;;;5028104;28;4674;-67
2023/07/07 09:35:20;;;;;;;;;;;;;;;;;;5042343;28;4872;-65
2023/07/07 09:37:48;;;;;;;;;;;;;;;;;;5047034;28;3289;-68
2023/07/07 09:40:15;;;;;;;;;;;;;;;;;;5042945;28;4838;-67
2023/07/07 09:42:49;;;;;;;;;;;;;;;;;;5048596;28;4972;-66
2023/07/07 09:45:23;;;;;;;;;;;;;;;;;;5043089;28;5129;-65
2023/07/07 09:47:51;;;;;;;;;;;;;;;;;;5058777;28;5869;-63
2023/07/07 09:50:26;;;;;;;;;;;;;;;;;;5046317;28;4694;-66
2023/07/07 09:52:58;;;;;;;;;;;;;;;;;;5062420;28;3274;-64
2023/07/07 09:55:24;;;;;;;;;;;;;;;;;;5060649;28;4608;-65
2023/07/07 09:57:53;;;;;;;;;;;;;;;;;;5062420;28;4967;-63
2023/07/07 10:00:18;;;;;;;;;;;;;;;;;;5045745;28;4634;-64
2023/07/07 10:02:46;;;;;;;;;;;;;;;;;;5061583;28;4770;-66
2023/07/07 10:05:15;;;;;;;;;;;;;;;;;;5044688;28;5142;-66
2023/07/07 10:07:40;;;;;;;;;;;;;;;;;;5047781;28;2913;-66
2023/07/07 10:10:06;;;;;;;;;;;;;;;;;;5047381;28;5079;-66
2023/07/07 10:12:32;;;;;;;;;;;;;;;;;;5043921;28;5052;-65
2023/07/07 10:14:57;;;;;;;;;;;;;;;;;;5046810;28;5005;-65
2023/07/07 10:17:22;;;;;;;;;;;;;;;;;;5044737;28;5033;-64
2023/07/07 10:19:52;;;;;;;;;;;;;;;;;;5044935;28;3443;-64
2023/07/07 10:22:17;;;;;;;;;;;;;;;;;;5015597;28;5004;-64
2023/07/07 10:24:43;;;;;;;;;;;;;;;;;;5058274;28;4920;-67
2023/07/07 10:27:12;;;;;;;;;;;;;;;;;;5043521;28;4549;-64
2023/07/07 10:29:39;;;;;;;;;;;;;;;;;;5045708;28;5015;-66
2023/07/07 10:32:05;;;;;;;;;;;;;;;;;;5046830;28;3237;-66
2023/07/07 10:34:34;;;;;;;;;;;;;;;;;;5048677;28;5129;-64
2023/07/07 10:36:59;;;;;;;;;;;;;;;;;;5041479;28;5358;-65
2023/07/07 10:39:25;;;;;;;;;;;;;;;;;;5046089;28;4934;-65
2023/07/07 10:41:50;;;;;;;;;;;;;;;;;;5061895;28;5033;-64
2023/07/07 10:44:16;;;;;;;;;;;;;;;;;;5044023;28;5169;-67
2023/07/07 10:46:42;;;;;;;;;;;;;;;;;;5044187;28;3381;-69
2023/07/07 10:49:08;;;;;;;;;;;;;;;;;;5044385;28;5032;-61
2023/07/07 10:51:41;;;;;;;;;;;;;;;;;;5048365;28;5032;-62
2023/07/07 10:54:16;;;;;;;;;;;;;;;;;;5024324;28;4864;-61
2023/07/07 10:56:43;;;;;;;;;;;;;;;;;;5042088;28;5035;-58
2023/07/07 10:59:18;;;;;;;;;;;;;;;;;;5060100;28;5170;-58
2023/07/07 11:01:50;;;;;;;;;;;;;;;;;;5057571;28;3436;-59
2023/07/07 11:04:21;;;;;;;;;;;;;;;;;;5043477;28;5063;-59
2023/07/07 11:06:49;;;;;;;;;;;;;;;;;;5043140;28;5017;-62
2023/07/07 11:09:18;;;;;;;;;;;;;;;;;;5043819;28;4942;-61
2023/07/07 11:12:06;;;;;;;;;;;;;;;;;;5041309;28;5120;-60
2023/07/07 11:14:31;;;;;;;;;;;;;;;;;;5013220;28;4492;-61
2023/07/07 11:17:03;;;;;;;;;;;;;;;;;;5043942;28;3169;-62
2023/07/07 11:19:31;;;;;;;;;;;;;;;;;;5043755;28;4785;-68
2023/07/07 11:22:08;;;;;;;;;;;;;;;;;;5041479;28;4902;-65
2023/07/07 11:24:35;;;;;;;;;;;;;;;;;;5060923;28;4824;-67
2023/07/07 11:27:12;;;;;;;;;;;;;;;;;;5040377;28;4500;-66
2023/07/07 11:29:41;;;;;;;;;;;;;;;;;;5045643;28;4626;-67
2023/07/07 11:32:14;;;;;;;;;;;;;;;;;;5065139;28;4493;-67
2023/07/07 11:35:03;;;;;;;;;;;;;;;;;;5021669;28;5055;-62
2023/07/07 11:37:33;;;;;;;;;;;;;;;;;;5055719;28;5049;-65
2023/07/07 11:40:04;;;;;;;;;;;;;;;;;;5024881;28;4519;-63
2023/07/07 11:42:38;;;;;;;;;;;;;;;;;;5042939;28;5039;-63
2023/07/07 11:45:13;;;;;;;;;;;;;;;;;;5026691;28;5032;-63
2023/07/07 11:47:55;;;;;;;;;;;;;;;;;;5059477;28;5013;-61
2023/07/07 11:50:35;;;;;;;;;;;;;;;;;;5045041;28;4984;-62
2023/07/07 11:53:13;;;;;;;;;;;;;;;;;;5045179;28;3190;-64
2023/07/07 11:55:49;;;;;;;;;;;;;;;;;;5059286;28;4910;-65
2023/07/07 11:58:30;;;;;;;;;;;;;;;;;;5059307;28;5174;-66
2023/07/07 12:01:01;;;;;;;;;;;;;;;;;;5043624;28;5131;-54
2023/07/07 12:03:35;;;;;;;;;;;;;;;;;;5058154;28;4728;-50
2023/07/07 12:06:02;;;;;;;;;;;;;;;;;;5048650;28;4618;-55
2023/07/07 12:08:35;;;;;;;;;;;;;;;;;;5063571;28;4473;-53
2023/07/07 12:11:00;;;;;;;;;;;;;;;;;;5047681;28;1345;-51
2023/07/07 12:13:30;;;;;;;;;;;;;;;;;;5064167;28;4972;-54
2023/07/07 12:16:02;;;;;;;;;;;;;;;;;;5062444;28;4633;-54
2023/07/07 12:18:34;;;;;;;;;;;;;;;;;;5048823;28;4449;-54
2023/07/07 12:21:16;;;;;;;;;;;;;;;;;;5063795;28;5048;-54
2023/07/07 12:23:56;;;;;;;;;;;;;;;;;;5041991;28;4525;-53
2023/07/07 12:26:25;;;;;;;;;;;;;;;;;;5063885;28;5081;-50
2023/07/07 12:28:53;;;;;;;;;;;;;;;;;;5063795;28;1108;-54
2023/07/07 12:31:19;;;;;;;;;;;;;;;;;;5062772;28;4957;-52
2023/07/07 12:33:44;;;;;;;;;;;;;;;;;;5064361;28;4967;-51
2023/07/07 12:36:11;;;;;;;;;;;;;;;;;;5047824;28;4991;-55
2023/07/07 12:38:36;;;;;;;;;;;;;;;;;;5058056;28;5127;-53
2023/07/07 12:41:05;;;;;;;;;;;;;;;;;;5052212;28;2159;-51
2023/07/07 12:43:39;;;;;;;;;;;;;;;;;;5048069;28;5093;-52
2023/07/07 12:46:06;;;;;;;;;;;;;;;;;;5048574;28;4928;-53
2023/07/07 12:48:31;;;;;;;;;;;;;;;;;;5026315;28;4714;-54
2023/07/07 12:51:00;;;;;;;;;;;;;;;;;;5046314;28;5037;-53
2023/07/07 12:53:32;;;;;;;;;;;;;;;;;;5030585;28;4578;-53
2023/07/07 12:55:59;;;;;;;;;;;;;;;;;;5064512;28;1132;-51
2023/07/07 12:58:37;;;;;;;;;;;;;;;;;;5047302;28;5021;-55
2023/07/07 13:01:03;;;;;;;;;;;;;;;;;;5048824;28;4981;-54
2023/07/07 13:03:28;;;;;;;;;;;;;;;;;;5047526;28;4653;-61
2023/07/07 13:05:53;;;;;;;;;;;;;;;;;;5048941;28;5043;-61
2023/07/07 13:08:34;;;;;;;;;;;;;;;;;;5062036;28;4752;-63
2023/07/07 13:11:04;;;;;;;;;;;;;;;;;;5048959;28;1156;-64
2023/07/07 13:13:29;;;;;;;;;;;;;;;;;;5047980;28;4378;-62
2023/07/07 13:15:55;;;;;;;;;;;;;;;;;;5061325;28;4531;-65
2023/07/07 13:18:20;;;;;;;;;;;;;;;;;;5030355;28;5089;-63
2023/07/07 13:20:47;;;;;;;;;;;;;;;;;;5064578;28;4952;-65
2023/07/07 13:23:15;;;;;;;;;;;;;;;;;;5063486;28;4945;-65
2023/07/07 13:25:42;;;;;;;;;;;;;;;;;;5059844;28;3065;-63
2023/07/07 13:28:11;;;;;;;;;;;;;;;;;;5057753;28;4895;-62
2023/07/07 13:30:38;;;;;;;;;;;;;;;;;;5057637;28;5048;-62
2023/07/07 13:33:24;;;;;;;;;;;;;;;;;;5062129;28;4649;-63
2023/07/07 13:35:53;;;;;;;;;;;;;;;;;;5046191;28;5283;-63
2023/07/07 13:38:19;;;;;;;;;;;;;;;;;;5061272;28;5221;-62
2023/07/07 13:40:44;;;;;;;;;;;;;;;;;;5041829;28;1914;-63
2023/07/07 13:43:29;;;;;;;;;;;;;;;;;;5027927;28;5001;-66
2023/07/07 13:46:04;;;;;;;;;;;;;;;;;;5030601;28;5077;-63
2023/07/07 13:48:29;;;;;;;;;;;;;;;;;;5042594;28;5275;-61
2023/07/07 13:50:54;;;;;;;;;;;;;;;;;;5023664;28;5207;-67
2023/07/07 13:53:20;;;;;;;;;;;;;;;;;;5027502;28;5097;-65
2023/07/07 13:55:47;;;;;;;;;;;;;;;;;;5027754;28;2160;-68
2023/07/07 13:58:13;;;;;;;;;;;;;;;;;;5008592;28;5219;-61
2023/07/07 14:00:38;;;;;;;;;;;;;;;;;;5035316;28;4913;-63
2023/07/07 14:03:06;;;;;;;;;;;;;;;;;;5047550;28;5067;-62
2023/07/07 14:05:32;;;;;;;;;;;;;;;;;;5058540;28;4698;-63
2023/07/07 14:07:58;;;;;;;;;;;;;;;;;;5022223;28;1391;-61
2023/07/07 14:10:36;;;;;;;;;;;;;;;;;;5045569;28;4469;-68
2023/07/07 14:13:03;;;;;;;;;;;;;;;;;;5027758;28;5080;-57
2023/07/07 14:15:36;;;;;;;;;;;;;;;;;;5025204;28;5118;-57
2023/07/07 14:18:02;;;;;;;;;;;;;;;;;;5049526;28;5035;-58
2023/07/07 14:20:27;;;;;;;;;;;;;;;;;;5048754;28;5175;-57
2023/07/07 14:22:52;;;;;;;;;;;;;;;;;;5009088;28;3308;-57
2023/07/07 14:25:20;;;;;;;;;;;;;;;;;;5025047;28;4700;-56
2023/07/07 14:27:45;;;;;;;;;;;;;;;;;;5023624;28;5030;-55
2023/07/07 14:30:14;;;;;;;;;;;;;;;;;;5041214;28;4610;-54
2023/07/07 14:32:40;;;;;;;;;;;;;;;;;;5041310;28;4949;-53
2023/07/07 14:35:15;;;;;;;;;;;;;;;;;;5043122;28;5158;-54
2023/07/07 14:37:44;;;;;;;;;;;;;;;;;;5024576;28;1383;-57
2023/07/07 14:40:30;;;;;;;;;;;;;;;;;;5057770;28;4684;-58
2023/07/07 14:42:56;;;;;;;;;;;;;;;;;;5047745;28;4994;-58
2023/07/07 14:45:25;;;;;;;;;;;;;;;;;;5045516;28;4917;-57
2023/07/07 14:47:51;;;;;;;;;;;;;;;;;;5044643;28;4750;-57
2023/07/07 14:50:16;;;;;;;;;;;;;;;;;;5045344;28;5079;-57
2023/07/07 14:52:42;;;;;;;;;;;;;;;;;;5066627;28;3229;-57
2023/07/07 14:55:11;;;;;;;;;;;;;;;;;;5043556;28;4525;-55
2023/07/07 14:57:39;;;;;;;;;;;;;;;;;;5026401;28;4477;-58
2023/07/07 15:00:24;;;;;;;;;;;;;;;;;;5043282;28;5199;-58
2023/07/07 15:02:49;;;;;;;;;;;;;;;;;;5041804;28;5022;-58
2023/07/07 15:05:18;;;;;;;;;;;;;;;;;;5061922;28;4682;-59
2023/07/07 15:07:45;;;;;;;;;;;;;;;;;;5045456;28;3197;-58
2023/07/07 15:10:10;;;;;;;;;;;;;;;;;;5061228;28;4508;-57
2023/07/07 15:12:35;;;;;;;;;;;;;;;;;;5044050;28;5087;-58
2023/07/07 15:15:00;;;;;;;;;;;;;;;;;;5044242;28;4573;-58
2023/07/07 15:17:26;;;;;;;;;;;;;;;;;;5044341;28;5122;-58
2023/07/07 15:19:52;;;;;;;;;;;;;;;;;;5043782;28;3248;-58
2023/07/07 15:22:17;;;;;;;;;;;;;;;;;;5045426;28;4421;-58
2023/07/07 15:24:42;;;;;;;;;;;;;;;;;;5043465;28;5065;-58
2023/07/07 15:27:09;;;;;;;;;;;;;;;;;;5043256;28;5010;-58
2023/07/07 15:29:36;;;;;;;;;;;;;;;;;;5060790;28;4497;-57
2023/07/07 15:32:04;;;;;;;;;;;;;;;;;;5044507;28;3241;-58
2023/07/07 15:34:29;;;;;;;;;;;;;;;;;;5044380;28;4991;-58
2023/07/07 15:36:54;;;;;;;;;;;;;;;;;;5046836;28;4423;-58
2023/07/07 15:39:20;;;;;;;;;;;;;;;;;;5034319;28;4687;-58
2023/07/07 15:41:45;;;;;;;;;;;;;;;;;;5026954;28;5125;-58
2023/07/07 15:44:10;;;;;;;;;;;;;;;;;;5027556;28;4748;-58
2023/07/07 15:46:37;;;;;;;;;;;;;;;;;;5023034;28;3229;-57
2023/07/07 15:49:03;;;;;;;;;;;;;;;;;;5042405;28;5187;-57
2023/07/07 15:51:35;;;;;;;;;;;;;;;;;;5023036;28;4526;-58
2023/07/07 15:54:01;;;;;;;;;;;;;;;;;;5045217;28;4499;-58
2023/07/07 15:56:27;;;;;;;;;;;;;;;;;;5046984;28;5041;-58
2023/07/07 15:58:53;;;;;;;;;;;;;;;;;;5037934;28;3389;-58
2023/07/07 16:01:18;;;;;;;;;;;;;;;;;;5041627;28;5015;-58
2023/07/07 16:03:43;;;;;;;;;;;;;;;;;;5007425;28;5139;-58
2023/07/07 16:06:09;;;;;;;;;;;;;;;;;;5028256;28;4483;-58
2023/07/07 16:08:34;;;;;;;;;;;;;;;;;;5008563;28;5199;-58
2023/07/07 16:10:59;;;;;;;;;;;;;;;;;;5027359;28;1330;-58
2023/07/07 16:13:25;;;;;;;;;;;;;;;;;;5006394;28;4944;-58
2023/07/07 16:15:50;;;;;;;;;;;;;;;;;;5032251;28;5268;-58
2023/07/07 16:18:15;;;;;;;;;;;;;;;;;;5044924;28;4948;-58
2023/07/07 16:20:40;;;;;;;;;;;;;;;;;;5026460;28;5000;-58
2023/07/07 16:23:06;;;;;;;;;;;;;;;;;;5006429;28;4501;-58
2023/07/07 16:25:31;;;;;;;;;;;;;;;;;;5032087;28;3213;-59
2023/07/07 16:27:56;;;;;;;;;;;;;;;;;;5031669;28;5062;-58
2023/07/07 16:30:21;;;;;;;;;;;;;;;;;;5027166;28;5089;-59
2023/07/07 16:32:47;;;;;;;;;;;;;;;;;;5026437;28;4935;-59
2023/07/07 16:35:12;;;;;;;;;;;;;;;;;;5045615;28;5092;-59
2023/07/07 16:37:39;;;;;;;;;;;;;;;;;;5022109;28;3289;-58
2023/07/07 16:40:14;;;;;;;;;;;;;;;;;;5023785;28;4552;-59
2023/07/07 16:42:39;;;;;;;;;;;;;;;;;;5029261;28;5469;-56
2023/07/07 16:45:04;;;;;;;;;;;;;;;;;;5022245;28;4800;-58
2023/07/07 16:47:29;;;;;;;;;;;;;;;;;;5026630;28;4641;-59
2023/07/07 16:49:55;;;;;;;;;;;;;;;;;;5026406;28;3464;-58
2023/07/07 16:52:20;;;;;;;;;;;;;;;;;;5027733;28;5035;-59
2023/07/07 16:54:45;;;;;;;;;;;;;;;;;;5029408;28;5134;-58
2023/07/07 16:57:10;;;;;;;;;;;;;;;;;;5033057;28;4859;-58
2023/07/07 16:59:36;;;;;;;;;;;;;;;;;;5013393;28;4507;-58
2023/07/07 17:02:01;;;;;;;;;;;;;;;;;;5042910;28;1218;-59
2023/07/07 17:04:27;;;;;;;;;;;;;;;;;;5046477;28;4827;-59